createdAt,value
2019-05-03T00:02:24.891Z,68.30
2019-05-03T00:04:51.659Z,67.35
2019-05-03T00:07:16.406Z,67.20
2019-05-03T00:09:42.626Z,66.24
2019-05-03T00:12:07.260Z,67.52
2019-05-03T00:14:32.552Z,67.68
2019-05-03T00:16:57.050Z,68.71
2019-05-03T00:19:21.999Z,67.87
2019-05-03T00:21:46.614Z,66.97
2019-05-03T00:24:11.879Z,67.82
2019-05-03T00:26:36.437Z,67.89
2019-05-03T00:29:02.188Z,67.83
2019-05-03T00:31:26.738Z,68.14
2019-05-03T00:33:52.928Z,68.69
2019-05-03T00:36:37.177Z,68.82
2019-05-03T00:39:03.378Z,68.61
2019-05-03T00:41:27.860Z,67.77
2019-05-03T00:43:52.364Z,66.95
2019-05-03T00:46:16.971Z,68.26
2019-05-03T00:48:43.006Z,68.61
2019-05-03T00:51:07.916Z,68.14
2019-05-03T00:53:32.486Z,68.97
2019-05-03T00:55:56.976Z,68.22
2019-05-03T00:58:22.459Z,67.76
2019-05-03T01:00:47.125Z,68.35
2019-05-03T01:03:12.551Z,68.00
2019-05-03T01:05:37.220Z,68.86
2019-05-03T01:08:02.041Z,69.18
2019-05-03T01:10:26.737Z,69.34
2019-05-03T01:12:52.284Z,69.72
2019-05-03T01:15:18.650Z,69.30
2019-05-03T01:17:43.142Z,68.42
2019-05-03T01:20:08.148Z,68.15
2019-05-03T01:22:32.663Z,69.18
2019-05-03T01:24:57.284Z,70.43
2019-05-03T01:27:22.116Z,70.13
2019-05-03T01:29:46.646Z,71.12
2019-05-03T01:32:11.578Z,70.24
2019-05-03T01:34:36.136Z,70.70
2019-05-03T01:37:02.439Z,69.55
2019-05-03T01:39:26.861Z,69.88
2019-05-03T01:41:51.917Z,70.15
2019-05-03T01:44:16.803Z,70.81
2019-05-03T01:46:42.198Z,71.00
2019-05-03T01:49:08.369Z,69.95
2019-05-03T01:51:34.582Z,70.44
2019-05-03T01:53:59.048Z,70.08
2019-05-03T01:56:23.589Z,70.75
2019-05-03T01:58:48.128Z,69.57
2019-05-03T02:01:32.251Z,70.45
2019-05-03T02:04:12.258Z,69.24
2019-05-03T02:06:36.952Z,70.70
2019-05-03T02:09:01.683Z,70.95
2019-05-03T02:11:26.181Z,71.48
2019-05-03T02:13:52.207Z,70.92
2019-05-03T02:16:16.761Z,71.06
2019-05-03T02:18:42.420Z,70.07
2019-05-03T02:21:06.985Z,70.38
2019-05-03T02:23:31.955Z,70.08
2019-05-03T02:25:59.245Z,68.72
2019-05-03T02:28:22.892Z,69.80
2019-05-03T02:30:47.379Z,69.77
2019-05-03T02:33:13.385Z,70.91
2019-05-03T02:35:38.299Z,71.18
2019-05-03T02:38:03.498Z,69.98
2019-05-03T02:40:28.583Z,70.76
2019-05-03T02:43:06.734Z,71.19
2019-05-03T02:45:31.574Z,71.55
2019-05-03T02:47:57.696Z,71.93
2019-05-03T02:50:22.211Z,71.91
2019-05-03T02:52:46.873Z,72.37
2019-05-03T02:55:15.631Z,71.89
2019-05-03T02:57:39.010Z,72.17
2019-05-03T03:00:05.718Z,72.27
2019-05-03T03:02:30.847Z,72.49
2019-05-03T03:04:56.323Z,72.63
2019-05-03T03:07:21.748Z,72.37
2019-05-03T03:09:47.184Z,72.49
2019-05-03T03:12:15.125Z,72.65
2019-05-03T03:14:40.268Z,73.18
2019-05-03T03:17:06.874Z,73.21
2019-05-03T03:19:35.155Z,73.52
2019-05-03T03:22:05.843Z,73.42
2019-05-03T03:24:31.895Z,73.19
2019-05-03T03:26:58.958Z,73.50
2019-05-03T03:29:26.485Z,73.35
2019-05-03T03:31:57.885Z,73.14
2019-05-03T03:34:28.161Z,73.34
2019-05-03T03:37:00.807Z,73.01
2019-05-03T03:39:20.249Z,72.56
2019-05-03T03:41:47.282Z,72.98
2019-05-03T03:44:15.316Z,72.83
2019-05-03T03:46:41.607Z,73.13
2019-05-03T03:49:07.429Z,74.35
2019-05-03T03:51:35.065Z,74.17
2019-05-03T03:54:01.502Z,74.35
2019-05-03T03:56:29.036Z,74.40
2019-05-03T03:58:55.575Z,74.56
2019-05-03T04:01:20.675Z,75.18
2019-05-03T04:03:46.161Z,75.04
2019-05-03T04:06:10.905Z,75.23
2019-05-03T04:08:36.379Z,75.04
2019-05-03T04:11:01.453Z,74.72
2019-05-03T04:13:26.689Z,74.35
2019-05-03T04:15:52.984Z,74.10
2019-05-03T04:18:19.261Z,73.21
2019-05-03T04:20:45.829Z,74.00
2019-05-03T04:23:10.641Z,74.08
2019-05-03T04:25:35.857Z,73.89
2019-05-03T04:28:00.469Z,73.87
2019-05-03T04:30:25.755Z,73.51
2019-05-03T04:32:50.616Z,73.93
2019-05-03T04:35:16.337Z,73.52
2019-05-03T04:37:41.121Z,72.76
2019-05-03T04:40:06.875Z,72.85
2019-05-03T04:42:31.355Z,72.96
2019-05-03T04:44:56.473Z,72.80
2019-05-03T04:47:21.093Z,72.90
2019-05-03T04:49:46.319Z,72.43
2019-05-03T04:52:10.946Z,72.63
2019-05-03T04:54:37.225Z,72.26
2019-05-03T04:57:01.698Z,72.62
2019-05-03T04:59:26.157Z,72.39
2019-05-03T05:01:50.691Z,72.59
2019-05-03T05:04:16.146Z,72.44
2019-05-03T05:06:40.753Z,71.43
2019-05-03T05:09:07.951Z,71.84
2019-05-03T05:11:34.931Z,72.52
2019-05-03T05:13:58.573Z,72.07
2019-05-03T05:16:25.125Z,71.55
2019-05-03T05:18:50.922Z,72.58
2019-05-03T05:21:17.180Z,72.74
2019-05-03T05:23:49.138Z,72.99
2019-05-03T05:26:17.938Z,72.62
2019-05-03T05:28:49.874Z,72.50
2019-05-03T05:31:15.188Z,72.47
2019-05-03T05:33:39.797Z,71.29
2019-05-03T05:36:04.844Z,70.96
2019-05-03T05:38:29.362Z,71.27
2019-05-03T05:40:55.485Z,71.17
2019-05-03T05:43:20.305Z,70.60
2019-05-03T05:45:45.030Z,70.96
2019-05-03T05:48:26.419Z,70.46
2019-05-03T05:50:50.862Z,70.58
2019-05-03T05:53:15.470Z,69.95
2019-05-03T05:55:41.632Z,70.20
2019-05-03T05:58:10.831Z,70.14
2019-05-03T06:00:39.758Z,69.41
2019-05-03T06:03:05.124Z,68.77
2019-05-03T06:05:29.850Z,69.13
2019-05-03T06:07:56.032Z,69.21
2019-05-03T06:10:25.283Z,68.26
2019-05-03T06:12:54.515Z,69.71
2019-05-03T06:15:34.516Z,69.00
2019-05-03T06:18:00.787Z,68.50
2019-05-03T06:20:26.918Z,67.66
2019-05-03T06:22:54.871Z,65.90
2019-05-03T06:25:21.013Z,66.58
2019-05-03T06:27:45.611Z,66.60
2019-05-03T06:30:12.651Z,67.71
2019-05-03T06:32:38.772Z,67.64
2019-05-03T06:35:04.930Z,68.61
2019-05-03T06:37:36.980Z,66.92
2019-05-03T06:40:01.479Z,66.87
2019-05-03T06:42:25.932Z,66.22
2019-05-03T06:44:50.478Z,65.92
2019-05-03T06:47:15.102Z,66.48
2019-05-03T06:49:44.933Z,65.69
2019-05-03T06:52:06.003Z,66.44
2019-05-03T06:54:30.475Z,65.87
2019-05-03T06:56:55.585Z,64.99
2019-05-03T06:59:21.783Z,65.07
2019-05-03T07:01:50.899Z,64.19
2019-05-03T07:04:17.011Z,62.57
2019-05-03T07:06:48.910Z,62.33
2019-05-03T07:09:25.017Z,61.32
2019-05-03T07:11:49.811Z,61.77
2019-05-03T07:14:15.570Z,62.22
2019-05-03T07:16:40.318Z,62.02
2019-05-03T07:19:04.868Z,60.50
2019-05-03T07:21:29.379Z,59.86
2019-05-03T07:23:55.140Z,58.98
2019-05-03T07:26:19.765Z,57.16
2019-05-03T07:28:47.735Z,58.89
2019-05-03T07:31:10.400Z,57.72
2019-05-03T07:33:35.938Z,57.23
2019-05-03T07:36:00.484Z,56.63
2019-05-03T07:38:25.267Z,59.08
2019-05-03T07:40:49.792Z,59.60
2019-05-03T07:43:14.853Z,58.36
2019-05-03T07:45:39.572Z,58.92
2019-05-03T07:48:04.694Z,59.13
2019-05-03T07:50:29.352Z,58.08
2019-05-03T07:52:55.552Z,59.05
2019-05-03T07:55:21.617Z,59.11
2019-05-03T07:57:47.889Z,58.14
2019-05-03T08:00:14.940Z,57.00
2019-05-03T08:02:39.772Z,56.51
2019-05-03T08:05:06.120Z,56.34
2019-05-03T08:07:30.563Z,56.28
2019-05-03T08:09:55.520Z,56.62
2019-05-03T08:12:20.274Z,55.43
2019-05-03T08:14:44.763Z,53.78
2019-05-03T08:17:09.294Z,53.08
2019-05-03T08:19:35.822Z,53.10
2019-05-03T08:22:00.094Z,54.76
2019-05-03T08:24:25.291Z,54.60
2019-05-03T08:26:49.890Z,54.22
2019-05-03T08:29:18.565Z,54.06
2019-05-03T08:31:51.100Z,52.30
2019-05-03T08:34:26.154Z,53.05
2019-05-03T08:36:58.348Z,51.56
2019-05-03T08:39:25.265Z,52.11
2019-05-03T08:41:50.730Z,52.41
2019-05-03T08:44:15.251Z,52.91
2019-05-03T08:46:39.740Z,51.98
2019-05-03T08:49:05.246Z,52.85
2019-05-03T08:51:29.860Z,53.48
2019-05-03T08:53:55.979Z,53.09
2019-05-03T08:56:20.586Z,53.42
2019-05-03T08:58:45.252Z,53.27
2019-05-03T09:01:09.751Z,53.06
2019-05-03T09:03:36.393Z,52.22
2019-05-03T09:06:00.461Z,51.73
2019-05-03T09:08:25.060Z,52.43
2019-05-03T09:10:56.988Z,51.84
2019-05-03T09:13:22.506Z,52.07
2019-05-03T09:15:48.608Z,51.78
2019-05-03T09:18:16.854Z,52.78
2019-05-03T09:20:39.600Z,52.79
2019-05-03T09:23:05.465Z,52.77
2019-05-03T09:25:30.182Z,52.02
2019-05-03T09:27:55.204Z,53.27
2019-05-03T09:30:20.785Z,54.96
2019-05-03T09:32:45.331Z,53.69
2019-05-03T09:35:27.181Z,53.36
2019-05-03T09:37:39.112Z,53.40
2019-05-03T09:40:04.568Z,53.14
2019-05-03T09:42:29.015Z,52.87
2019-05-03T09:44:55.432Z,52.88
2019-05-03T09:47:19.723Z,52.33
2019-05-03T09:49:45.403Z,53.95
2019-05-03T09:52:10.046Z,53.74
2019-05-03T09:54:36.122Z,53.34
2019-05-03T09:57:00.598Z,54.02
2019-05-03T09:59:31.766Z,54.73
2019-05-03T10:01:56.414Z,55.51
2019-05-03T10:04:20.943Z,56.35
2019-05-03T10:06:45.417Z,58.81
2019-05-03T10:09:09.871Z,59.84
2019-05-03T10:11:35.136Z,59.48
2019-05-03T10:13:59.777Z,58.58
2019-05-03T10:16:25.874Z,59.32
2019-05-03T10:18:50.319Z,59.64
2019-05-03T10:21:15.040Z,59.40
2019-05-03T10:23:39.813Z,58.78
2019-05-03T10:26:05.130Z,57.78
2019-05-03T10:28:29.754Z,56.06
2019-05-03T10:30:54.769Z,56.92
2019-05-03T10:33:20.963Z,51.54
2019-05-03T10:35:45.568Z,50.71
2019-05-03T10:38:10.198Z,52.18
2019-05-03T10:40:35.753Z,53.63
2019-05-03T10:43:01.710Z,49.57
2019-05-03T10:45:28.110Z,49.14
2019-05-03T10:47:52.411Z,50.72
2019-05-03T10:50:17.003Z,51.16
2019-05-03T10:52:48.837Z,53.00
2019-05-03T10:55:15.719Z,55.16
2019-05-03T10:57:41.388Z,58.65
2019-05-03T11:00:39.332Z,57.67
2019-05-03T11:02:39.195Z,59.27
2019-05-03T11:05:05.243Z,57.57
2019-05-03T11:07:29.951Z,56.47
2019-05-03T11:09:55.095Z,53.81
2019-05-03T11:12:19.767Z,53.11
2019-05-03T11:14:45.514Z,53.66
2019-05-03T11:17:10.475Z,51.17
2019-05-03T11:19:35.040Z,50.38
2019-05-03T11:21:59.639Z,48.38
2019-05-03T11:24:27.308Z,47.08
2019-05-03T11:26:52.021Z,47.36
2019-05-03T11:29:16.631Z,46.32
2019-05-03T11:31:48.667Z,45.21
2019-05-03T11:34:18.313Z,44.03
2019-05-03T11:37:01.494Z,44.13
2019-05-03T11:39:25.946Z,45.40
2019-05-03T11:41:54.912Z,48.72
2019-05-03T11:44:37.785Z,50.47
2019-05-03T11:47:02.255Z,52.04
2019-05-03T11:49:26.728Z,52.92
2019-05-03T11:51:51.256Z,52.35
2019-05-03T11:54:16.696Z,52.65
2019-05-03T11:56:41.726Z,53.44
2019-05-03T11:59:06.255Z,52.64
2019-05-03T12:01:32.446Z,53.17
2019-05-03T12:03:57.227Z,53.87
2019-05-03T12:06:21.758Z,53.00
2019-05-03T12:08:46.356Z,52.89
2019-05-03T12:11:10.887Z,53.54
2019-05-03T12:13:35.370Z,50.23
2019-05-03T12:16:00.821Z,49.36
2019-05-03T12:18:26.273Z,49.44
2019-05-03T12:20:52.418Z,47.80
2019-05-03T12:23:18.147Z,47.33
2019-05-03T12:25:45.750Z,46.95
2019-05-03T12:28:09.358Z,47.29
2019-05-03T12:30:35.577Z,46.94
2019-05-03T12:33:00.239Z,48.42
2019-05-03T12:35:24.792Z,50.42
2019-05-03T12:37:49.253Z,50.54
2019-05-03T12:40:14.916Z,50.15
2019-05-03T12:42:39.566Z,49.01
2019-05-03T12:45:04.700Z,47.10
2019-05-03T12:47:29.214Z,46.35
2019-05-03T12:49:55.755Z,45.88
2019-05-03T12:52:20.591Z,43.64
2019-05-03T12:54:45.612Z,44.99
2019-05-03T12:57:10.603Z,42.74
2019-05-03T12:59:36.787Z,42.69
2019-05-03T13:02:09.150Z,42.70
2019-05-03T13:04:38.075Z,43.39
2019-05-03T13:07:14.835Z,43.29
2019-05-03T13:09:39.364Z,45.13
2019-05-03T13:12:05.572Z,45.43
2019-05-03T13:14:30.304Z,45.34
2019-05-03T13:16:55.235Z,45.58
2019-05-03T13:19:19.727Z,46.45
2019-05-03T13:21:45.050Z,46.42
2019-05-03T13:24:22.492Z,46.28
2019-05-03T13:26:35.940Z,46.45
2019-05-03T13:29:00.489Z,46.76
2019-05-03T13:31:25.186Z,45.91
2019-05-03T13:33:49.730Z,45.29
2019-05-03T13:36:15.192Z,45.34
2019-05-03T13:38:39.757Z,44.61
2019-05-03T13:41:06.473Z,44.37
2019-05-03T13:43:31.216Z,45.35
2019-05-03T13:45:55.846Z,46.02
2019-05-03T13:48:21.191Z,45.37
2019-05-03T13:50:46.574Z,45.10
2019-05-03T13:53:11.046Z,45.40
2019-05-03T13:55:35.623Z,46.21
2019-05-03T13:58:00.104Z,45.98
2019-05-03T14:00:24.834Z,46.23
2019-05-03T14:02:49.344Z,46.68
2019-05-03T14:05:15.490Z,47.83
2019-05-03T14:07:40.367Z,48.15
2019-05-03T14:10:07.798Z,49.85
2019-05-03T14:12:32.265Z,51.17
2019-05-03T14:14:56.806Z,51.29
2019-05-03T14:17:22.580Z,50.48
2019-05-03T14:19:47.315Z,48.46
2019-05-03T14:22:15.500Z,50.53
2019-05-03T14:24:39.710Z,49.37
2019-05-03T14:27:05.580Z,50.38
2019-05-03T14:29:30.258Z,48.60
2019-05-03T14:31:54.916Z,47.46
2019-05-03T14:34:19.373Z,48.54
2019-05-03T14:36:44.962Z,47.04
2019-05-03T14:39:10.503Z,47.75
2019-05-03T14:41:35.353Z,48.45
2019-05-03T14:43:59.898Z,48.10
2019-05-03T14:46:32.831Z,48.42
2019-05-03T14:48:50.718Z,48.64
2019-05-03T14:51:15.279Z,47.07
2019-05-03T14:53:39.904Z,47.56
2019-05-03T14:56:12.036Z,49.11
2019-05-03T14:58:56.027Z,50.24
2019-05-03T15:01:34.728Z,49.85
2019-05-03T15:03:59.405Z,49.74
2019-05-03T15:06:24.969Z,49.56
2019-05-03T15:08:49.600Z,49.09
2019-05-03T15:11:14.921Z,49.28
2019-05-03T15:13:39.571Z,49.38
2019-05-03T15:16:05.262Z,50.18
2019-05-03T15:18:29.858Z,48.82
2019-05-03T15:20:55.004Z,48.71
2019-05-03T15:23:19.852Z,48.49
2019-05-03T15:25:45.248Z,51.20
2019-05-03T15:28:09.800Z,50.12
2019-05-03T15:30:35.211Z,49.97
2019-05-03T15:33:01.020Z,51.00
2019-05-03T15:35:25.994Z,50.26
2019-05-03T15:37:50.617Z,50.30
2019-05-03T15:40:15.714Z,50.84
2019-05-03T15:42:42.023Z,50.40
2019-05-03T15:45:11.787Z,50.03
2019-05-03T15:47:37.930Z,51.21
2019-05-03T15:50:02.511Z,52.61
2019-05-03T15:52:27.109Z,54.40
2019-05-03T15:54:51.654Z,55.09
2019-05-03T15:57:16.131Z,53.82
2019-05-03T15:59:40.727Z,55.46
2019-05-03T16:02:05.357Z,53.93
2019-05-03T16:04:29.925Z,52.59
2019-05-03T16:06:55.450Z,52.74
2019-05-03T16:09:19.929Z,54.00
2019-05-03T16:11:45.079Z,53.33
2019-05-03T16:14:09.721Z,54.20
2019-05-03T16:16:35.405Z,52.79
2019-05-03T16:18:59.954Z,52.63
2019-05-03T16:21:25.189Z,52.32
2019-05-03T16:23:49.653Z,52.94
2019-05-03T16:26:14.387Z,54.20
2019-05-03T16:28:40.614Z,52.75
2019-05-03T16:31:06.734Z,53.71
2019-05-03T16:33:31.269Z,53.82
2019-05-03T16:35:55.745Z,53.29
2019-05-03T16:38:20.301Z,51.54
2019-05-03T16:40:45.225Z,51.86
2019-05-03T16:43:09.862Z,50.76
2019-05-03T16:45:35.016Z,52.07
2019-05-03T16:47:59.768Z,52.79
2019-05-03T16:50:25.065Z,52.44
2019-05-03T16:52:49.648Z,51.93
2019-05-03T16:55:16.308Z,52.25
2019-05-03T16:57:40.691Z,53.07
2019-05-03T17:00:07.151Z,52.91
2019-05-03T17:02:31.641Z,52.38
2019-05-03T17:05:14.669Z,52.88
2019-05-03T17:07:56.132Z,52.84
2019-05-03T17:10:25.570Z,53.39
2019-05-03T17:12:50.224Z,53.60
2019-05-03T17:15:15.021Z,53.08
2019-05-03T17:17:39.486Z,53.26
2019-05-03T17:20:07.003Z,53.11
2019-05-03T17:22:31.542Z,53.06
2019-05-03T17:24:56.048Z,52.84
2019-05-03T17:27:20.593Z,53.59
2019-05-03T17:29:45.057Z,53.31
2019-05-03T17:32:11.129Z,53.07
2019-05-03T17:34:35.722Z,52.88
2019-05-03T17:37:00.241Z,52.79
2019-05-03T17:39:42.876Z,52.06
2019-05-03T17:42:14.953Z,53.19
2019-05-03T17:44:46.820Z,53.18
2019-05-03T17:47:11.282Z,53.70
2019-05-03T17:49:35.987Z,52.71
2019-05-03T17:52:02.238Z,52.85
2019-05-03T17:54:28.434Z,52.84
2019-05-03T17:56:55.120Z,53.50
2019-05-03T17:59:19.854Z,53.36
2019-05-03T18:01:46.053Z,51.83
2019-05-03T18:04:15.754Z,53.12
2019-05-03T18:06:41.999Z,52.29
2019-05-03T18:09:15.340Z,53.46
2019-05-03T18:11:41.459Z,52.37
2019-05-03T18:14:06.032Z,53.97
2019-05-03T18:16:30.548Z,54.90
2019-05-03T18:18:55.028Z,55.71
2019-05-03T18:21:19.631Z,54.83
2019-05-03T18:23:45.557Z,54.91
2019-05-03T18:26:10.137Z,54.87
2019-05-03T18:28:35.558Z,54.34
2019-05-03T18:31:00.204Z,53.99
2019-05-03T18:33:24.847Z,54.68
2019-05-03T18:35:49.334Z,54.73
2019-05-03T18:38:14.867Z,54.60
2019-05-03T18:40:39.503Z,54.64
2019-05-03T18:43:20.659Z,54.72
2019-05-03T18:45:55.840Z,54.17
2019-05-03T18:48:20.397Z,54.72
2019-05-03T18:50:46.641Z,54.71
2019-05-03T18:53:11.386Z,54.63
2019-05-03T18:55:35.903Z,52.89
2019-05-03T18:58:00.367Z,52.50
2019-05-03T19:00:26.240Z,52.76
2019-05-03T19:02:50.996Z,52.25
2019-05-03T19:05:17.255Z,52.16
2019-05-03T19:07:45.212Z,52.41
2019-05-03T19:10:15.349Z,53.41
2019-05-03T19:12:41.644Z,52.46
2019-05-03T19:15:07.549Z,51.85
2019-05-03T19:17:36.555Z,52.50
2019-05-03T19:20:01.631Z,54.53
2019-05-03T19:22:26.159Z,53.89
2019-05-03T19:24:50.759Z,54.07
2019-05-03T19:27:15.295Z,53.54
2019-05-03T19:29:39.775Z,53.81
2019-05-03T19:32:04.647Z,53.91
2019-05-03T19:34:29.173Z,54.37
2019-05-03T19:36:54.750Z,53.96
2019-05-03T19:39:19.267Z,53.29
2019-05-03T19:41:44.868Z,53.89
2019-05-03T19:44:09.428Z,54.10
2019-05-03T19:46:35.085Z,53.73
2019-05-03T19:48:59.722Z,54.25
2019-05-03T19:51:24.188Z,54.24
2019-05-03T19:53:55.171Z,54.16
2019-05-03T19:56:19.652Z,53.96
2019-05-03T19:58:46.653Z,53.82
2019-05-03T20:01:27.162Z,54.97
2019-05-03T20:03:56.471Z,54.14
2019-05-03T20:06:22.568Z,54.74
2019-05-03T20:08:54.951Z,55.34
2019-05-03T20:11:19.509Z,56.00
2019-05-03T20:13:45.307Z,56.25
2019-05-03T20:16:09.907Z,56.29
2019-05-03T20:18:35.547Z,55.47
2019-05-03T20:21:00.100Z,56.01
2019-05-03T20:23:25.049Z,55.83
2019-05-03T20:25:49.580Z,56.23
2019-05-03T20:28:15.375Z,57.12
2019-05-03T20:30:39.981Z,55.94
2019-05-03T20:33:04.503Z,57.05
2019-05-03T20:35:29.028Z,56.98
2019-05-03T20:37:55.292Z,57.35
2019-05-03T20:40:19.860Z,58.13
2019-05-03T20:42:48.956Z,57.50
2019-05-03T20:45:15.856Z,58.07
2019-05-03T20:47:41.967Z,58.05
2019-05-03T20:50:16.912Z,57.26
2019-05-03T20:52:41.500Z,57.65
2019-05-03T20:55:06.319Z,57.17
2019-05-03T20:57:30.765Z,56.89
2019-05-03T20:59:55.248Z,57.51
2019-05-03T21:02:19.702Z,57.33
2019-05-03T21:04:44.169Z,57.35
2019-05-03T21:07:08.829Z,57.40
2019-05-03T21:09:34.535Z,57.49
2019-05-03T21:11:59.378Z,57.14
2019-05-03T21:14:24.459Z,57.14
2019-05-03T21:16:54.505Z,57.21
2019-05-03T21:19:29.736Z,57.31
2019-05-03T21:22:05.559Z,57.11
2019-05-03T21:24:34.940Z,58.00
2019-05-03T21:26:59.564Z,58.53
2019-05-03T21:29:24.058Z,58.79
2019-05-03T21:31:48.588Z,59.87
2019-05-03T21:34:14.800Z,59.40
2019-05-03T21:36:39.293Z,59.97
2019-05-03T21:39:05.913Z,59.84
2019-05-03T21:41:30.381Z,60.71
2019-05-03T21:43:54.910Z,61.27
2019-05-03T21:46:36.073Z,61.53
2019-05-03T21:49:02.175Z,61.51
2019-05-03T21:51:26.742Z,61.29
2019-05-03T21:53:51.351Z,61.82
2019-05-03T21:56:15.953Z,61.88
2019-05-03T21:58:40.412Z,62.28
2019-05-03T22:01:06.675Z,61.46
2019-05-03T22:03:31.210Z,61.33
2019-05-03T22:05:57.999Z,61.03
2019-05-03T22:08:21.877Z,61.29
2019-05-03T22:10:46.519Z,59.43
2019-05-03T22:13:10.991Z,59.95
2019-05-03T22:15:43.317Z,60.50
2019-05-03T22:18:09.547Z,61.12
2019-05-03T22:20:35.727Z,61.58
2019-05-03T22:23:07.632Z,61.13
2019-05-03T22:25:34.892Z,62.14
2019-05-03T22:27:59.356Z,62.73
2019-05-03T22:30:24.343Z,63.97
2019-05-03T22:32:50.115Z,64.07
2019-05-03T22:35:15.714Z,64.23
2019-05-03T22:37:40.327Z,64.35
2019-05-03T22:40:06.131Z,64.79
2019-05-03T22:42:30.584Z,64.84
2019-05-03T22:44:55.438Z,64.39
2019-05-03T22:47:19.936Z,64.12
2019-05-03T22:49:45.617Z,65.25
2019-05-03T22:52:10.238Z,65.38
2019-05-03T22:54:34.766Z,65.92
2019-05-03T22:56:59.269Z,65.22
2019-05-03T22:59:25.202Z,65.61
2019-05-03T23:01:49.978Z,65.45
2019-05-03T23:04:14.830Z,65.63
2019-05-03T23:06:39.384Z,66.24
2019-05-03T23:09:05.675Z,66.46
2019-05-03T23:11:30.191Z,66.24
2019-05-03T23:14:04.918Z,66.10
2019-05-03T23:16:30.952Z,66.62
2019-05-03T23:18:55.420Z,65.73
2019-05-03T23:21:21.506Z,65.40
2019-05-03T23:23:50.445Z,65.35
2019-05-03T23:26:14.929Z,65.69
2019-05-03T23:28:39.423Z,66.69
2019-05-03T23:31:05.382Z,66.51
2019-05-03T23:33:29.883Z,66.26
2019-05-03T23:35:55.163Z,66.34
2019-05-03T23:38:19.796Z,64.60
2019-05-03T23:40:44.751Z,65.83
2019-05-03T23:43:09.300Z,66.16
2019-05-03T23:45:34.769Z,66.20
2019-05-03T23:47:59.439Z,65.23
2019-05-03T23:50:24.895Z,66.14
2019-05-03T23:52:49.623Z,65.05
2019-05-03T23:55:19.212Z,65.40
2019-05-03T23:57:44.671Z,65.70
